createdAt,value
2022-11-24T00:01:22.296Z,101107.44
2022-11-24T00:03:56.686Z,101092.13
2022-11-24T00:06:25.624Z,101118.56
2022-11-24T00:08:54.486Z,101124.84
2022-11-24T00:11:24.542Z,101131.28
2022-11-24T00:13:53.698Z,101081.47
2022-11-24T00:16:23.509Z,101116.59
2022-11-24T00:18:55.421Z,101100.38
2022-11-24T00:21:24.909Z,101060.03
2022-11-24T00:23:53.709Z,101081.97
2022-11-24T00:26:23.623Z,101102.03
2022-11-24T00:28:53.264Z,101117.84
2022-11-24T00:31:23.424Z,101117.09
2022-11-24T00:33:54.636Z,101109.47
2022-11-24T00:36:25.255Z,101106.09
2022-11-24T00:38:55.773Z,101086.78
2022-11-24T00:41:25.104Z,101087.94
2022-11-24T00:43:54.016Z,101095.13
2022-11-24T00:46:22.825Z,101096.84
2022-11-24T00:48:51.462Z,101100.13
2022-11-24T00:51:22.617Z,101098.03
2022-11-24T00:53:50.990Z,101098.47
2022-11-24T00:56:20.375Z,101096.13
2022-11-24T00:58:48.747Z,101084.47
2022-11-24T01:01:19.487Z,101067.47
2022-11-24T01:03:48.261Z,101090.72
2022-11-24T01:06:18.523Z,101098.47
2022-11-24T01:08:48.948Z,101094.88
2022-11-24T01:11:20.126Z,101103.16
2022-11-24T01:13:50.796Z,101112.69
2022-11-24T01:16:21.833Z,101104.44
2022-11-24T01:18:50.850Z,101110.19
2022-11-24T01:21:20.293Z,101054.03
2022-11-24T01:23:50.182Z,101101.66
2022-11-24T01:26:21.566Z,101103.56
2022-11-24T01:28:54.196Z,101105.38
2022-11-24T01:31:22.822Z,101108.53
2022-11-24T01:33:51.440Z,101113.84
2022-11-24T01:36:20.076Z,101117.63
2022-11-24T01:38:49.855Z,101115.75
2022-11-24T01:41:21.592Z,101126.34
2022-11-24T01:43:50.482Z,101124.44
2022-11-24T01:46:24.115Z,101128.69
2022-11-24T01:48:57.377Z,101136.19
2022-11-24T01:51:28.102Z,101138.38
2022-11-24T01:54:02.126Z,101133.81
2022-11-24T01:56:31.734Z,101139.97
2022-11-24T01:59:02.499Z,101134.97
2022-11-24T02:01:32.313Z,101136.19
2022-11-24T02:04:03.179Z,101131.44
2022-11-24T02:06:34.517Z,101135.16
2022-11-24T02:09:09.672Z,101134.97
2022-11-24T02:11:40.117Z,101063.22
2022-11-24T02:14:11.428Z,101090.19
2022-11-24T02:16:42.106Z,101127.44
2022-11-24T02:19:19.473Z,101110.25
2022-11-24T02:21:48.065Z,101114.69
2022-11-24T02:24:26.093Z,101117.16
2022-11-24T02:26:55.856Z,101121.19
2022-11-24T02:29:24.090Z,101123.34
2022-11-24T02:31:59.381Z,101130.88
2022-11-24T02:34:27.636Z,101128.94
2022-11-24T02:36:55.877Z,101130.03
2022-11-24T02:39:24.253Z,101138.13
2022-11-24T02:41:57.975Z,101124.00
2022-11-24T02:44:31.312Z,101125.28
2022-11-24T02:47:04.440Z,101123.38
2022-11-24T02:49:32.791Z,101118.47
2022-11-24T02:52:01.024Z,101122.81
2022-11-24T02:54:29.702Z,101125.16
2022-11-24T02:56:59.753Z,101117.84
2022-11-24T02:59:28.050Z,101126.41
2022-11-24T03:01:56.363Z,101118.13
2022-11-24T03:04:24.805Z,101115.69
2022-11-24T03:06:53.027Z,101115.34
2022-11-24T03:09:21.807Z,101114.91
2022-11-24T03:11:51.077Z,101113.72
2022-11-24T03:14:20.709Z,101107.22
2022-11-24T03:16:49.061Z,101110.84
2022-11-24T03:19:17.277Z,101116.06
2022-11-24T03:21:45.465Z,101126.47
2022-11-24T03:24:13.765Z,101128.91
2022-11-24T03:26:42.182Z,101134.72
2022-11-24T03:29:10.762Z,101142.34
2022-11-24T03:31:40.506Z,101144.69
2022-11-24T03:34:08.896Z,101150.63
2022-11-24T03:36:37.206Z,101149.44
2022-11-24T03:39:05.717Z,101148.25
2022-11-24T03:41:34.127Z,101150.69
2022-11-24T03:44:02.891Z,101154.84
2022-11-24T03:46:31.228Z,101168.72
2022-11-24T03:49:01.053Z,101174.56
2022-11-24T03:51:29.231Z,101172.63
2022-11-24T03:53:57.461Z,101172.13
2022-11-24T03:56:25.665Z,101181.13
2022-11-24T03:58:53.996Z,101152.56
2022-11-24T04:01:22.337Z,101165.91
2022-11-24T04:03:50.663Z,101158.50
2022-11-24T04:06:20.252Z,101172.94
2022-11-24T04:08:48.528Z,101176.09
2022-11-24T04:11:30.672Z,101179.50
2022-11-24T04:13:58.915Z,101176.84
2022-11-24T04:16:27.230Z,101171.41
2022-11-24T04:18:56.077Z,101165.13
2022-11-24T04:21:25.688Z,101166.81
2022-11-24T04:23:53.983Z,101150.16
2022-11-24T04:26:22.209Z,101162.13
2022-11-24T04:28:50.555Z,101171.06
2022-11-24T04:31:19.157Z,101174.56
2022-11-24T04:33:47.482Z,101175.41
2022-11-24T04:36:15.915Z,101173.97
2022-11-24T04:39:22.852Z,101185.72
2022-11-24T04:41:34.006Z,101176.88
2022-11-24T04:44:02.244Z,101189.09
2022-11-24T04:46:30.479Z,101137.84
2022-11-24T04:48:58.825Z,101196.78
2022-11-24T04:51:27.089Z,101191.78
2022-11-24T04:53:56.716Z,101196.47
2022-11-24T04:56:24.986Z,101096.59
2022-11-24T04:58:53.300Z,101203.22
2022-11-24T05:01:24.516Z,101204.28
2022-11-24T05:03:56.863Z,101196.31
2022-11-24T05:06:25.670Z,101201.16
2022-11-24T05:08:55.329Z,101202.97
2022-11-24T05:11:24.080Z,101199.81
2022-11-24T05:13:54.165Z,101198.44
2022-11-24T05:16:22.581Z,101200.47
2022-11-24T05:18:50.995Z,101195.59
2022-11-24T05:21:19.835Z,101201.25
2022-11-24T05:23:48.194Z,101197.25
2022-11-24T05:26:16.392Z,101210.97
2022-11-24T05:28:45.937Z,101210.78
2022-11-24T05:31:14.343Z,101219.06
2022-11-24T05:33:43.437Z,101223.53
2022-11-24T05:36:32.317Z,101223.88
2022-11-24T05:39:00.746Z,101222.16
2022-11-24T05:41:28.958Z,101231.50
2022-11-24T05:43:58.585Z,101235.88
2022-11-24T05:46:27.724Z,101229.72
2022-11-24T05:48:55.937Z,101230.66
2022-11-24T05:51:24.179Z,101228.22
2022-11-24T05:53:52.412Z,101227.38
2022-11-24T05:56:20.709Z,101231.13
2022-11-24T05:58:48.966Z,101244.41
2022-11-24T06:01:18.597Z,101245.47
2022-11-24T06:03:47.848Z,101252.91
2022-11-24T06:06:16.164Z,101253.88
2022-11-24T06:08:44.403Z,101254.72
2022-11-24T06:11:19.623Z,101253.53
2022-11-24T06:13:49.449Z,101250.16
2022-11-24T06:16:19.270Z,101248.00
2022-11-24T06:18:47.615Z,101255.44
2022-11-24T06:21:17.311Z,101253.56
2022-11-24T06:23:48.803Z,101237.28
2022-11-24T06:26:18.681Z,101243.34
2022-11-24T06:28:46.899Z,101236.13
2022-11-24T06:31:15.155Z,101236.34
2022-11-24T06:33:44.855Z,101235.59
2022-11-24T06:36:14.803Z,101224.22
2022-11-24T06:38:43.203Z,101229.00
2022-11-24T06:41:13.866Z,101217.53
2022-11-24T06:43:42.346Z,101216.69
2022-11-24T06:46:11.051Z,101206.47
2022-11-24T06:48:39.843Z,101228.25
2022-11-24T06:51:13.069Z,101231.00
2022-11-24T06:53:42.377Z,101236.44
2022-11-24T06:56:19.978Z,101248.75
2022-11-24T06:58:49.790Z,101247.59
2022-11-24T07:01:19.044Z,101248.22
2022-11-24T07:03:49.209Z,101250.22
2022-11-24T07:06:20.520Z,101258.06
2022-11-24T07:08:49.566Z,101253.16
2022-11-24T07:11:19.847Z,101205.16
2022-11-24T07:13:48.773Z,101249.97
2022-11-24T07:16:18.665Z,101251.56
2022-11-24T07:18:48.489Z,101255.41
2022-11-24T07:21:18.823Z,101242.44
2022-11-24T07:23:49.879Z,101238.19
2022-11-24T07:26:18.764Z,101254.56
2022-11-24T07:28:48.436Z,101257.06
2022-11-24T07:31:19.092Z,101254.31
2022-11-24T07:33:50.256Z,101263.69
2022-11-24T07:36:21.374Z,101261.34
2022-11-24T07:38:50.443Z,101267.81
2022-11-24T07:41:20.362Z,101270.69
2022-11-24T07:43:49.677Z,101267.69
2022-11-24T07:46:20.270Z,101274.13
2022-11-24T07:48:49.234Z,101262.28
2022-11-24T07:51:17.861Z,101259.78
2022-11-24T07:53:47.663Z,101262.59
2022-11-24T07:56:15.900Z,101260.63
2022-11-24T07:58:48.331Z,101262.94
2022-11-24T08:01:21.202Z,101267.63
2022-11-24T08:03:49.571Z,101261.63
2022-11-24T08:06:25.485Z,101239.81
2022-11-24T08:08:57.523Z,101271.59
2022-11-24T08:11:26.246Z,101281.44
2022-11-24T08:13:54.607Z,101283.75
2022-11-24T08:16:22.812Z,101285.72
2022-11-24T08:18:52.390Z,101279.31
2022-11-24T08:21:23.418Z,101284.13
2022-11-24T08:23:55.826Z,101287.28
2022-11-24T08:26:26.240Z,101295.88
2022-11-24T08:28:57.835Z,101289.19
2022-11-24T08:31:33.626Z,101280.19
2022-11-24T08:34:03.218Z,101280.28
2022-11-24T08:36:32.469Z,101287.53
2022-11-24T08:39:01.727Z,101282.34
2022-11-24T08:41:32.008Z,101275.00
2022-11-24T08:44:00.303Z,101285.16
2022-11-24T08:46:28.622Z,101284.56
2022-11-24T08:48:57.192Z,101270.53
2022-11-24T08:51:27.271Z,101287.41
2022-11-24T08:53:58.517Z,101285.13
2022-11-24T08:56:28.073Z,101284.03
2022-11-24T08:58:58.494Z,101284.75
2022-11-24T09:01:27.511Z,101284.97
2022-11-24T09:03:56.378Z,101279.81
2022-11-24T09:06:27.078Z,101276.59
2022-11-24T09:08:56.032Z,101228.13
2022-11-24T09:11:25.343Z,101270.56
2022-11-24T09:13:54.561Z,101267.47
2022-11-24T09:16:26.611Z,101268.63
2022-11-24T09:18:59.164Z,101280.50
2022-11-24T09:21:27.533Z,101238.88
2022-11-24T09:23:56.382Z,101289.31
2022-11-24T09:26:26.473Z,101285.13
2022-11-24T09:28:56.650Z,101292.47
2022-11-24T09:31:28.331Z,101281.97
2022-11-24T09:33:57.312Z,101282.41
2022-11-24T09:36:26.066Z,101291.84
2022-11-24T09:38:54.585Z,101291.44
2022-11-24T09:41:41.524Z,101296.38
2022-11-24T09:44:22.831Z,101296.97
2022-11-24T09:47:02.100Z,101270.88
2022-11-24T09:49:35.899Z,101281.47
2022-11-24T09:52:12.034Z,101267.13
2022-11-24T09:54:46.701Z,101268.22
2022-11-24T09:57:16.595Z,101273.44
2022-11-24T09:59:44.827Z,101280.22
2022-11-24T10:02:15.158Z,101273.63
2022-11-24T10:04:46.054Z,101245.28
2022-11-24T10:07:24.327Z,101269.56
2022-11-24T10:10:04.962Z,101270.25
2022-11-24T10:12:48.370Z,101258.03
2022-11-24T10:15:39.423Z,101261.09
2022-11-24T10:18:38.747Z,101267.03
2022-11-24T10:21:24.079Z,101282.69
2022-11-24T10:24:09.098Z,101282.13
2022-11-24T10:26:38.685Z,101285.09
2022-11-24T10:29:21.211Z,101279.00
2022-11-24T10:31:54.909Z,101292.69
2022-11-24T10:34:28.986Z,101279.88
2022-11-24T10:37:04.246Z,101282.00
2022-11-24T10:39:38.226Z,101271.84
2022-11-24T10:42:13.449Z,101274.91
2022-11-24T10:44:43.882Z,101278.19
2022-11-24T10:47:20.726Z,101272.81
2022-11-24T10:49:56.840Z,101280.28
2022-11-24T10:52:27.977Z,101269.00
2022-11-24T10:54:58.632Z,101283.50
2022-11-24T10:57:32.859Z,101228.50
2022-11-24T11:00:01.491Z,101288.16
2022-11-24T11:02:33.398Z,101286.16
2022-11-24T11:05:17.727Z,101182.69
2022-11-24T11:07:47.422Z,101280.81
2022-11-24T11:10:21.100Z,101280.66
2022-11-24T11:12:49.620Z,101270.06
2022-11-24T11:15:24.422Z,101272.06
2022-11-24T11:17:57.783Z,101265.00
2022-11-24T11:20:30.833Z,101251.84
2022-11-24T11:23:03.360Z,101235.56
2022-11-24T11:25:35.148Z,101233.25
2022-11-24T11:28:24.766Z,101237.75
2022-11-24T11:31:20.072Z,101213.78
2022-11-24T11:34:04.602Z,101226.22
2022-11-24T11:36:36.742Z,101215.06
2022-11-24T11:39:06.477Z,101207.09
2022-11-24T11:41:37.937Z,101191.25
2022-11-24T11:44:16.419Z,101189.47
2022-11-24T11:46:45.667Z,101183.47
2022-11-24T11:49:15.264Z,101181.06
2022-11-24T11:52:02.323Z,101182.19
2022-11-24T11:54:49.605Z,101177.81
2022-11-24T11:57:28.354Z,101168.75
2022-11-24T12:00:07.531Z,101178.38
2022-11-24T12:03:11.737Z,101185.28
2022-11-24T12:05:51.963Z,101185.84
2022-11-24T12:08:49.491Z,101180.13
2022-11-24T12:11:33.459Z,101187.84
2022-11-24T12:14:15.564Z,101183.59
2022-11-24T12:16:56.150Z,101175.56
2022-11-24T12:19:47.370Z,101184.59
2022-11-24T12:22:25.867Z,101182.19
2022-11-24T12:25:00.786Z,101185.19
2022-11-24T12:27:40.232Z,101180.94
2022-11-24T12:30:13.879Z,101179.25
2022-11-24T12:33:23.493Z,101172.34
2022-11-24T12:36:03.811Z,101156.78
2022-11-24T12:38:47.001Z,101184.09
2022-11-24T12:41:42.702Z,101143.38
2022-11-24T12:44:28.904Z,101156.94
2022-11-24T12:47:04.874Z,101145.88
2022-11-24T12:49:43.676Z,101140.22
2022-11-24T12:52:20.895Z,101130.31
2022-11-24T12:54:49.262Z,101136.25
2022-11-24T12:57:23.001Z,101137.63
2022-11-24T13:00:01.778Z,101135.47
2022-11-24T13:02:45.878Z,101139.69
2022-11-24T13:05:23.452Z,101143.06
2022-11-24T13:07:58.588Z,101131.16
2022-11-24T13:13:27.756Z,101118.88
2022-11-24T13:19:10.756Z,101119.53
2022-11-24T13:22:14.884Z,101109.59
2022-11-24T13:24:45.024Z,101099.34
2022-11-24T13:27:29.791Z,101101.72
2022-11-24T13:29:58.122Z,101095.16
2022-11-24T13:33:03.739Z,101087.34
2022-11-24T13:35:32.124Z,101077.59
2022-11-24T13:38:00.438Z,101074.59
2022-11-24T13:40:54.210Z,101069.59
2022-11-24T13:43:30.626Z,101057.47
2022-11-24T13:45:58.991Z,101044.88
2022-11-24T13:49:01.266Z,101042.72
2022-11-24T13:51:29.735Z,101033.28
2022-11-24T13:54:00.958Z,101043.88
2022-11-24T13:56:31.764Z,101042.19
2022-11-24T13:59:03.849Z,101053.94
2022-11-24T14:01:40.929Z,101060.31
2022-11-24T14:04:31.440Z,101033.78
2022-11-24T14:07:07.831Z,101061.09
2022-11-24T14:09:42.013Z,101072.84
2022-11-24T14:12:16.380Z,101065.63
2022-11-24T14:14:46.335Z,101043.00
2022-11-24T14:17:23.171Z,101033.41
2022-11-24T14:19:55.041Z,101057.69
2022-11-24T14:22:26.929Z,101050.59
2022-11-24T14:24:57.393Z,101047.06
2022-11-24T14:27:31.083Z,101040.72
2022-11-24T14:30:01.093Z,101024.72
2022-11-24T14:32:29.596Z,101017.69
2022-11-24T14:34:59.394Z,100998.88
2022-11-24T14:37:27.843Z,100992.66
2022-11-24T14:39:56.129Z,101007.78
2022-11-24T14:42:27.339Z,101022.03
2022-11-24T14:44:58.899Z,101024.59
2022-11-24T14:47:31.954Z,101033.19
2022-11-24T14:50:12.330Z,101051.31
2022-11-24T14:52:46.672Z,101011.28
2022-11-24T14:55:26.665Z,101059.09
2022-11-24T14:57:55.367Z,101050.38
2022-11-24T15:00:28.970Z,101047.53
2022-11-24T15:03:16.103Z,101057.41
2022-11-24T15:06:00.667Z,101054.03
2022-11-24T15:08:35.979Z,101048.53
2022-11-24T15:11:07.031Z,101046.00
2022-11-24T15:13:38.330Z,101042.84
2022-11-24T15:16:10.308Z,101045.53
2022-11-24T15:18:42.849Z,101039.84
2022-11-24T15:21:18.820Z,101032.50
2022-11-24T15:24:07.736Z,101047.78
2022-11-24T15:26:41.720Z,101048.69
2022-11-24T15:29:11.095Z,101057.03
2022-11-24T15:31:39.746Z,101067.09
2022-11-24T15:34:08.220Z,101060.88
2022-11-24T15:36:37.802Z,101062.03
2022-11-24T15:39:06.065Z,101058.44
2022-11-24T15:41:35.042Z,101059.81
2022-11-24T15:44:03.387Z,101074.78
2022-11-24T15:46:38.218Z,101065.19
2022-11-24T15:49:07.599Z,101071.34
2022-11-24T15:51:40.383Z,101062.13
2022-11-24T15:54:14.807Z,101069.47
2022-11-24T15:56:44.597Z,101073.59
2022-11-24T15:59:20.275Z,101073.25
2022-11-24T16:01:49.979Z,101054.38
2022-11-24T16:04:18.607Z,101037.19
2022-11-24T16:06:48.195Z,101033.25
2022-11-24T16:09:18.256Z,101041.22
2022-11-24T16:11:46.579Z,101031.09
2022-11-24T16:14:15.069Z,101032.97
2022-11-24T16:16:43.599Z,101030.34
2022-11-24T16:19:12.359Z,101027.00
2022-11-24T16:21:40.589Z,101043.06
2022-11-24T16:24:10.663Z,101044.50
2022-11-24T16:26:38.910Z,101047.19
2022-11-24T16:29:07.155Z,101056.06
2022-11-24T16:31:35.431Z,101064.38
2022-11-24T16:34:03.764Z,101069.03
2022-11-24T16:36:32.029Z,101087.81
2022-11-24T16:39:01.165Z,101070.94
2022-11-24T16:41:30.891Z,101073.59
2022-11-24T16:43:59.279Z,101067.13
2022-11-24T16:46:27.672Z,101067.41
2022-11-24T16:49:00.245Z,101069.69
2022-11-24T16:51:34.489Z,101033.69
2022-11-24T16:54:03.954Z,101076.22
2022-11-24T16:56:33.874Z,101075.22
2022-11-24T16:59:02.244Z,101078.47
2022-11-24T17:01:33.384Z,101078.50
2022-11-24T17:04:01.960Z,101084.97
2022-11-24T17:06:30.563Z,101085.25
2022-11-24T17:08:58.797Z,101077.50
2022-11-24T17:11:29.795Z,101077.09
2022-11-24T17:13:59.784Z,101080.16
2022-11-24T17:16:28.581Z,101076.22
2022-11-24T17:18:58.770Z,101078.22
2022-11-24T17:21:28.629Z,101082.28
2022-11-24T17:23:58.566Z,101078.75
2022-11-24T17:26:27.614Z,101086.34
2022-11-24T17:28:56.096Z,101087.59
2022-11-24T17:31:28.490Z,101092.94
2022-11-24T17:33:58.253Z,101105.63
2022-11-24T17:36:27.472Z,101097.28
2022-11-24T17:38:55.791Z,101117.03
2022-11-24T17:41:24.380Z,101081.22
2022-11-24T17:43:53.979Z,101115.63
2022-11-24T17:46:22.724Z,101113.53
2022-11-24T17:48:52.833Z,101109.56
2022-11-24T17:51:22.778Z,101100.97
2022-11-24T17:53:53.273Z,101094.91
2022-11-24T17:56:23.805Z,101090.13
2022-11-24T17:58:55.280Z,101088.41
2022-11-24T18:01:24.616Z,101087.72
2022-11-24T18:03:54.434Z,101088.97
2022-11-24T18:06:25.244Z,101085.84
2022-11-24T18:08:54.439Z,101082.47
2022-11-24T18:11:30.670Z,101075.69
2022-11-24T18:14:02.634Z,101070.50
2022-11-24T18:16:35.027Z,101066.69
2022-11-24T18:19:11.339Z,101070.78
2022-11-24T18:21:40.986Z,101060.81
2022-11-24T18:24:09.920Z,101050.66
2022-11-24T18:26:38.599Z,101046.03
2022-11-24T18:29:07.240Z,101067.53
2022-11-24T18:31:36.480Z,101069.38
2022-11-24T18:34:07.401Z,101062.59
2022-11-24T18:36:36.700Z,101066.13
2022-11-24T18:39:06.579Z,101071.72
2022-11-24T18:41:35.957Z,101085.09
2022-11-24T18:44:08.146Z,101084.25
2022-11-24T18:46:37.166Z,101090.00
2022-11-24T18:49:07.683Z,101084.78
2022-11-24T18:51:36.264Z,101077.88
2022-11-24T18:54:06.188Z,101090.25
2022-11-24T18:56:34.813Z,101078.59
2022-11-24T18:59:03.303Z,101085.63
2022-11-24T19:01:32.527Z,101084.19
2022-11-24T19:04:03.047Z,101090.25
2022-11-24T19:06:35.148Z,101096.31
2022-11-24T19:09:06.816Z,101095.47
2022-11-24T19:11:37.184Z,101102.66
2022-11-24T19:14:07.771Z,101099.00
2022-11-24T19:16:36.443Z,101099.72
2022-11-24T19:19:06.053Z,101078.84
2022-11-24T19:21:38.353Z,101112.09
2022-11-24T19:24:10.090Z,101102.50
2022-11-24T19:26:39.058Z,101105.06
2022-11-24T19:29:08.340Z,101110.66
2022-11-24T19:31:38.475Z,101115.28
2022-11-24T19:34:08.206Z,101120.78
2022-11-24T19:36:38.459Z,101109.22
2022-11-24T19:39:06.866Z,101105.00
2022-11-24T19:41:35.587Z,101092.91
2022-11-24T19:44:03.844Z,101087.56
2022-11-24T19:46:32.140Z,101089.41
2022-11-24T19:49:02.365Z,101087.72
2022-11-24T19:51:31.981Z,101085.88
2022-11-24T19:54:02.096Z,101096.00
2022-11-24T19:56:32.000Z,101099.44
2022-11-24T19:59:00.306Z,101104.47
2022-11-24T20:01:31.595Z,101109.69
2022-11-24T20:04:01.389Z,101111.38
2022-11-24T20:06:31.247Z,101100.44
2022-11-24T20:09:01.728Z,101091.19
2022-11-24T20:11:30.728Z,101087.97
2022-11-24T20:13:59.380Z,101095.13
2022-11-24T20:16:31.464Z,101094.28
2022-11-24T20:19:01.586Z,101099.06
2022-11-24T20:21:32.047Z,101104.06
2022-11-24T20:24:03.941Z,101097.03
2022-11-24T20:26:34.899Z,101102.38
2022-11-24T20:29:04.146Z,101070.50
2022-11-24T20:31:34.257Z,101100.97
2022-11-24T20:34:04.207Z,101087.31
2022-11-24T20:36:34.337Z,101084.78
2022-11-24T20:39:07.395Z,101083.53
2022-11-24T20:41:37.591Z,101076.50
2022-11-24T20:44:08.560Z,101069.72
2022-11-24T20:46:39.188Z,101075.78
2022-11-24T20:49:09.670Z,101076.38
2022-11-24T20:51:39.897Z,101073.53
2022-11-24T20:54:10.878Z,101075.66
2022-11-24T20:56:41.552Z,101022.50
2022-11-24T20:59:12.562Z,101065.22
2022-11-24T21:01:42.878Z,101056.50
2022-11-24T21:04:12.909Z,101069.59
2022-11-24T21:06:41.942Z,101006.03
2022-11-24T21:09:12.785Z,101045.25
2022-11-24T21:11:41.648Z,101055.66
2022-11-24T21:14:10.439Z,101062.25
2022-11-24T21:16:40.484Z,101070.25
2022-11-24T21:19:12.399Z,101087.97
2022-11-24T21:21:42.918Z,101082.03
2022-11-24T21:24:14.944Z,101083.16
2022-11-24T21:26:47.557Z,101081.44
2022-11-24T21:29:17.418Z,101047.88
2022-11-24T21:31:45.906Z,101074.09
2022-11-24T21:34:16.736Z,101085.63
2022-11-24T21:36:45.663Z,101096.31
2022-11-24T21:39:16.510Z,101094.44
2022-11-24T21:41:45.189Z,101105.84
2022-11-24T21:44:13.835Z,101095.66
2022-11-24T21:46:48.098Z,101096.44
2022-11-24T21:49:17.778Z,101077.25
2022-11-24T21:51:46.108Z,101084.31
2022-11-24T21:54:15.791Z,101093.31
2022-11-24T21:56:43.990Z,101096.94
2022-11-24T21:59:12.304Z,101059.94
2022-11-24T22:01:40.609Z,101015.75
2022-11-24T22:04:09.035Z,101124.09
2022-11-24T22:06:37.294Z,101131.38
2022-11-24T22:09:05.621Z,101127.03
2022-11-24T22:11:35.223Z,101136.00
2022-11-24T22:14:03.541Z,101139.53
2022-11-24T22:16:31.825Z,101142.19
2022-11-24T22:19:01.238Z,101140.84
2022-11-24T22:21:33.490Z,101134.53
2022-11-24T22:24:02.569Z,101085.63
2022-11-24T22:26:31.345Z,101123.59
2022-11-24T22:29:01.080Z,101125.88
2022-11-24T22:31:31.250Z,101081.16
2022-11-24T22:34:02.349Z,101122.41
2022-11-24T22:36:34.065Z,101157.78
2022-11-24T22:39:04.571Z,100992.78
2022-11-24T22:41:34.030Z,101102.94
2022-11-24T22:44:04.188Z,101138.97
2022-11-24T22:46:33.261Z,101156.47
2022-11-24T22:49:03.202Z,101154.41
2022-11-24T22:51:33.461Z,101153.53
2022-11-24T22:54:03.428Z,101155.38
2022-11-24T22:56:32.933Z,101146.91
2022-11-24T22:59:01.595Z,101165.66
2022-11-24T23:01:33.794Z,101166.13
2022-11-24T23:04:02.540Z,101163.31
2022-11-24T23:06:32.326Z,101164.31
2022-11-24T23:09:01.999Z,101154.59
2022-11-24T23:11:37.421Z,101151.94
2022-11-24T23:14:08.184Z,101160.78
2022-11-24T23:16:38.880Z,101161.75
2022-11-24T23:19:07.700Z,101177.78
2022-11-24T23:21:38.437Z,101171.34
2022-11-24T23:24:08.513Z,101174.59
2022-11-24T23:26:38.599Z,101171.94
2022-11-24T23:29:07.652Z,101193.28
2022-11-24T23:31:35.946Z,101189.66
2022-11-24T23:34:05.998Z,101194.28
2022-11-24T23:36:34.737Z,101206.09
2022-11-24T23:39:04.215Z,101208.66
2022-11-24T23:41:32.915Z,101203.19
2022-11-24T23:44:01.611Z,101192.75
2022-11-24T23:46:30.087Z,101188.38
2022-11-24T23:48:59.006Z,101177.84
2022-11-24T23:51:30.666Z,101167.00
2022-11-24T23:53:59.664Z,101163.66
2022-11-24T23:56:31.644Z,101158.31
2022-11-24T23:59:00.529Z,101160.53
